アルジェ の空港の天気 - METARとTAF

ウアリ・ブーメディアン空港 ( DAAG / ALG ) - アルジェリア アルジェ
飛行場実況気象(Metar)
観測時間10/16 08:30 CET (10/16 07:30 UTC)
風向・風速静穏 0m/s
視程10km以上
天気現象
少しの雲 雲底高度 700m
気温16℃
湿度94%
気圧1022hPa
METARDAAG 160730Z 00000KT 9999 FEW023TCU 16/15 Q1022
過去の天気等 Google飛行場航空写真 Wunderground天気予報

過去48時間のMETAR

飛行場予報(TAF)
発表時間: 10/16 06:00 CET (10/16 05:00 UTC)
予報対象時間: 16日7時 CET ~ 17日7時 CET
風向・風速不定 1m/s
視程10km以上
少しの雲 雲底高度 610m
16日11時 CET ~ 16日14時 CET に徐々に
風向・風速北 5m/s
16日14時 CET ~ 16日19時 CET に 確率 30% で一時的に
少しの塔状積雲 雲底高度 700m
16日17時 CET ~ 16日20時 CET に徐々に
風向・風速不定 1m/s
TAF DAAG 160500Z 1606/1706 VRB02KT 9999 FEW020
BECMG 1610/1613 01010KT
PROB30 TEMPO 1613/1618 FEW023TCU
BECMG 1616/1619 VRB02KT